sensor_id;sensor_type;location;lat;lon;timestamp;temperature;humidity
69393;SHT31;56582;44.624;20.378;2023-04-28T00:02:16;7.30;63.28
69393;SHT31;56582;44.624;20.378;2023-04-28T00:04:42;7.38;62.95
69393;SHT31;56582;44.624;20.378;2023-04-28T00:07:08;7.10;63.50
69393;SHT31;56582;44.624;20.378;2023-04-28T00:09:33;6.79;64.34
69393;SHT31;56582;44.624;20.378;2023-04-28T00:11:59;7.00;64.17
69393;SHT31;56582;44.624;20.378;2023-04-28T00:14:24;6.93;63.93
69393;SHT31;56582;44.624;20.378;2023-04-28T00:16:50;7.03;63.90
69393;SHT31;56582;44.624;20.378;2023-04-28T00:19:15;7.10;63.72
69393;SHT31;56582;44.624;20.378;2023-04-28T00:21:41;6.84;65.11
69393;SHT31;56582;44.624;20.378;2023-04-28T00:24:06;6.84;64.81
69393;SHT31;56582;44.624;20.378;2023-04-28T00:26:32;6.72;65.32
69393;SHT31;56582;44.624;20.378;2023-04-28T00:28:58;6.59;66.29
69393;SHT31;56582;44.624;20.378;2023-04-28T00:31:23;6.64;65.60
69393;SHT31;56582;44.624;20.378;2023-04-28T00:33:48;6.88;64.97
69393;SHT31;56582;44.624;20.378;2023-04-28T00:36:14;6.75;65.31
69393;SHT31;56582;44.624;20.378;2023-04-28T00:38:39;6.71;66.11
69393;SHT31;56582;44.624;20.378;2023-04-28T00:41:05;6.81;65.98
69393;SHT31;56582;44.624;20.378;2023-04-28T00:43:30;6.61;66.63
69393;SHT31;56582;44.624;20.378;2023-04-28T00:45:56;6.45;67.38
69393;SHT31;56582;44.624;20.378;2023-04-28T00:48:22;6.55;67.08
69393;SHT31;56582;44.624;20.378;2023-04-28T00:50:48;6.69;66.71
69393;SHT31;56582;44.624;20.378;2023-04-28T00:53:14;6.89;66.06
69393;SHT31;56582;44.624;20.378;2023-04-28T00:55:40;6.76;65.97
69393;SHT31;56582;44.624;20.378;2023-04-28T00:58:06;6.44;67.18
69393;SHT31;56582;44.624;20.378;2023-04-28T01:00:32;6.36;67.44
69393;SHT31;56582;44.624;20.378;2023-04-28T01:02:57;6.11;67.99
69393;SHT31;56582;44.624;20.378;2023-04-28T01:05:24;6.31;67.18
69393;SHT31;56582;44.624;20.378;2023-04-28T01:07:50;6.48;66.98
69393;SHT31;56582;44.624;20.378;2023-04-28T01:10:16;6.21;67.75
69393;SHT31;56582;44.624;20.378;2023-04-28T01:12:41;6.26;67.62
69393;SHT31;56582;44.624;20.378;2023-04-28T01:15:14;6.10;68.08
69393;SHT31;56582;44.624;20.378;2023-04-28T01:17:40;6.47;67.17
69393;SHT31;56582;44.624;20.378;2023-04-28T01:20:06;6.49;67.13
69393;SHT31;56582;44.624;20.378;2023-04-28T01:22:32;6.42;67.07
69393;SHT31;56582;44.624;20.378;2023-04-28T01:24:57;6.47;66.87
69393;SHT31;56582;44.624;20.378;2023-04-28T01:27:24;6.48;66.88
69393;SHT31;56582;44.624;20.378;2023-04-28T01:29:50;6.27;67.29
69393;SHT31;56582;44.624;20.378;2023-04-28T01:32:15;6.40;67.24
69393;SHT31;56582;44.624;20.378;2023-04-28T01:34:41;6.47;67.36
69393;SHT31;56582;44.624;20.378;2023-04-28T01:37:06;6.55;66.90
69393;SHT31;56582;44.624;20.378;2023-04-28T01:39:32;6.48;67.36
69393;SHT31;56582;44.624;20.378;2023-04-28T01:41:57;6.45;66.91
69393;SHT31;56582;44.624;20.378;2023-04-28T01:44:23;6.42;66.77
69393;SHT31;56582;44.624;20.378;2023-04-28T01:46:48;6.49;66.57
69393;SHT31;56582;44.624;20.378;2023-04-28T01:49:14;6.51;66.14
69393;SHT31;56582;44.624;20.378;2023-04-28T01:51:39;6.33;67.22
69393;SHT31;56582;44.624;20.378;2023-04-28T01:54:06;6.44;66.85
69393;SHT31;56582;44.624;20.378;2023-04-28T01:56:32;6.23;68.05
69393;SHT31;56582;44.624;20.378;2023-04-28T01:58:57;6.10;68.10
69393;SHT31;56582;44.624;20.378;2023-04-28T02:01:23;6.26;67.32
69393;SHT31;56582;44.624;20.378;2023-04-28T02:03:48;6.16;67.55
69393;SHT31;56582;44.624;20.378;2023-04-28T02:06:14;6.44;66.82
69393;SHT31;56582;44.624;20.378;2023-04-28T02:08:40;6.42;66.86
69393;SHT31;56582;44.624;20.378;2023-04-28T02:11:05;6.61;66.54
69393;SHT31;56582;44.624;20.378;2023-04-28T02:13:30;6.57;66.12
69393;SHT31;56582;44.624;20.378;2023-04-28T02:15:59;6.64;66.13
69393;SHT31;56582;44.624;20.378;2023-04-28T02:18:25;6.76;65.81
69393;SHT31;56582;44.624;20.378;2023-04-28T02:20:51;6.71;65.85
69393;SHT31;56582;44.624;20.378;2023-04-28T02:23:16;6.85;65.51
69393;SHT31;56582;44.624;20.378;2023-04-28T02:25:41;6.89;65.17
69393;SHT31;56582;44.624;20.378;2023-04-28T02:28:07;6.82;65.41
69393;SHT31;56582;44.624;20.378;2023-04-28T02:30:32;6.75;65.91
69393;SHT31;56582;44.624;20.378;2023-04-28T02:32:58;6.37;67.01
69393;SHT31;56582;44.624;20.378;2023-04-28T02:35:23;6.14;67.40
69393;SHT31;56582;44.624;20.378;2023-04-28T02:37:48;6.37;66.52
69393;SHT31;56582;44.624;20.378;2023-04-28T02:40:15;6.47;66.10
69393;SHT31;56582;44.624;20.378;2023-04-28T02:42:40;6.14;67.24
69393;SHT31;56582;44.624;20.378;2023-04-28T02:45:06;6.36;66.40
69393;SHT31;56582;44.624;20.378;2023-04-28T02:47:32;6.42;66.21
69393;SHT31;56582;44.624;20.378;2023-04-28T02:49:57;6.51;65.91
69393;SHT31;56582;44.624;20.378;2023-04-28T02:52:23;6.49;66.00
69393;SHT31;56582;44.624;20.378;2023-04-28T02:54:48;6.51;66.07
69393;SHT31;56582;44.624;20.378;2023-04-28T02:57:18;6.65;65.56
69393;SHT31;56582;44.624;20.378;2023-04-28T02:59:44;6.71;65.36
69393;SHT31;56582;44.624;20.378;2023-04-28T03:02:09;6.65;65.66
69393;SHT31;56582;44.624;20.378;2023-04-28T03:04:36;6.79;66.40
69393;SHT31;56582;44.624;20.378;2023-04-28T03:07:01;7.28;87.85
69393;SHT31;56582;44.624;20.378;2023-04-28T03:09:26;7.50;92.00
69393;SHT31;56582;44.624;20.378;2023-04-28T03:11:52;7.37;92.53
69393;SHT31;56582;44.624;20.378;2023-04-28T03:14:17;7.46;92.48
69393;SHT31;56582;44.624;20.378;2023-04-28T03:16:43;8.15;95.76
69393;SHT31;56582;44.624;20.378;2023-04-28T03:19:08;8.54;96.99
69393;SHT31;56582;44.624;20.378;2023-04-28T03:21:34;7.51;86.50
69393;SHT31;56582;44.624;20.378;2023-04-28T03:23:59;7.23;78.95
69393;SHT31;56582;44.624;20.378;2023-04-28T03:26:25;7.07;78.83
69393;SHT31;56582;44.624;20.378;2023-04-28T03:28:50;7.07;79.20
69393;SHT31;56582;44.624;20.378;2023-04-28T03:31:15;6.54;70.48
69393;SHT31;56582;44.624;20.378;2023-04-28T03:33:41;6.48;70.32
69393;SHT31;56582;44.624;20.378;2023-04-28T03:36:09;6.81;69.95
69393;SHT31;56582;44.624;20.378;2023-04-28T03:38:35;6.96;72.79
69393;SHT31;56582;44.624;20.378;2023-04-28T03:41:00;6.92;68.50
69393;SHT31;56582;44.624;20.378;2023-04-28T03:43:26;6.61;68.49
69393;SHT31;56582;44.624;20.378;2023-04-28T03:45:52;6.57;68.70
69393;SHT31;56582;44.624;20.378;2023-04-28T03:48:17;6.51;68.13
69393;SHT31;56582;44.624;20.378;2023-04-28T03:50:43;6.67;67.87
69393;SHT31;56582;44.624;20.378;2023-04-28T03:53:10;6.57;67.99
69393;SHT31;56582;44.624;20.378;2023-04-28T03:55:35;6.49;68.48
69393;SHT31;56582;44.624;20.378;2023-04-28T03:58:01;6.41;68.01
69393;SHT31;56582;44.624;20.378;2023-04-28T04:00:26;6.26;68.61
69393;SHT31;56582;44.624;20.378;2023-04-28T04:02:52;6.26;69.14
69393;SHT31;56582;44.624;20.378;2023-04-28T04:05:17;6.20;69.05
69393;SHT31;56582;44.624;20.378;2023-04-28T04:07:43;6.24;69.25
69393;SHT31;56582;44.624;20.378;2023-04-28T04:10:08;6.44;68.25
69393;SHT31;56582;44.624;20.378;2023-04-28T04:12:34;6.58;67.88
69393;SHT31;56582;44.624;20.378;2023-04-28T04:14:59;6.71;67.69
69393;SHT31;56582;44.624;20.378;2023-04-28T04:17:25;6.74;67.32
69393;SHT31;56582;44.624;20.378;2023-04-28T04:19:50;6.88;66.90
69393;SHT31;56582;44.624;20.378;2023-04-28T04:22:16;6.97;66.70
69393;SHT31;56582;44.624;20.378;2023-04-28T04:24:41;7.03;66.63
69393;SHT31;56582;44.624;20.378;2023-04-28T04:27:06;6.93;66.83
69393;SHT31;56582;44.624;20.378;2023-04-28T04:29:32;6.89;66.92
69393;SHT31;56582;44.624;20.378;2023-04-28T04:31:58;6.88;67.21
69393;SHT31;56582;44.624;20.378;2023-04-28T04:34:23;6.88;67.27
69393;SHT31;56582;44.624;20.378;2023-04-28T04:36:48;6.93;67.38
69393;SHT31;56582;44.624;20.378;2023-04-28T04:39:14;6.93;67.54
69393;SHT31;56582;44.624;20.378;2023-04-28T04:41:39;6.95;67.53
69393;SHT31;56582;44.624;20.378;2023-04-28T04:44:06;7.05;67.57
69393;SHT31;56582;44.624;20.378;2023-04-28T04:46:31;6.95;68.14
69393;SHT31;56582;44.624;20.378;2023-04-28T04:48:57;6.97;67.78
69393;SHT31;56582;44.624;20.378;2023-04-28T04:51:22;6.95;68.30
69393;SHT31;56582;44.624;20.378;2023-04-28T04:53:47;6.91;69.01
69393;SHT31;56582;44.624;20.378;2023-04-28T04:56:13;6.96;70.26
69393;SHT31;56582;44.624;20.378;2023-04-28T04:58:42;7.05;69.97
69393;SHT31;56582;44.624;20.378;2023-04-28T05:01:08;7.17;70.65
69393;SHT31;56582;44.624;20.378;2023-04-28T05:03:34;7.42;69.67
69393;SHT31;56582;44.624;20.378;2023-04-28T05:06:00;7.54;71.41
69393;SHT31;56582;44.624;20.378;2023-04-28T05:08:27;7.64;71.07
69393;SHT31;56582;44.624;20.378;2023-04-28T05:10:52;7.71;72.54
69393;SHT31;56582;44.624;20.378;2023-04-28T05:13:18;7.74;72.71
69393;SHT31;56582;44.624;20.378;2023-04-28T05:15:43;7.91;73.93
69393;SHT31;56582;44.624;20.378;2023-04-28T05:18:09;8.05;69.38
69393;SHT31;56582;44.624;20.378;2023-04-28T05:20:36;8.21;71.14
69393;SHT31;56582;44.624;20.378;2023-04-28T05:23:01;8.37;69.87
69393;SHT31;56582;44.624;20.378;2023-04-28T05:25:27;8.44;69.45
69393;SHT31;56582;44.624;20.378;2023-04-28T05:27:52;8.57;69.26
69393;SHT31;56582;44.624;20.378;2023-04-28T05:30:18;8.78;68.10
69393;SHT31;56582;44.624;20.378;2023-04-28T05:32:43;9.07;75.55
69393;SHT31;56582;44.624;20.378;2023-04-28T05:35:09;9.22;72.87
69393;SHT31;56582;44.624;20.378;2023-04-28T05:37:34;9.49;68.46
69393;SHT31;56582;44.624;20.378;2023-04-28T05:40:02;9.66;66.02
69393;SHT31;56582;44.624;20.378;2023-04-28T05:42:27;9.84;66.28
69393;SHT31;56582;44.624;20.378;2023-04-28T05:44:53;9.94;67.65
69393;SHT31;56582;44.624;20.378;2023-04-28T05:47:18;10.15;66.48
69393;SHT31;56582;44.624;20.378;2023-04-28T05:49:44;10.29;64.71
69393;SHT31;56582;44.624;20.378;2023-04-28T05:52:09;10.39;65.37
69393;SHT31;56582;44.624;20.378;2023-04-28T05:54:35;10.62;66.08
69393;SHT31;56582;44.624;20.378;2023-04-28T05:57:00;10.79;64.02
69393;SHT31;56582;44.624;20.378;2023-04-28T05:59:26;11.01;63.11
69393;SHT31;56582;44.624;20.378;2023-04-28T06:01:52;11.17;63.46
69393;SHT31;56582;44.624;20.378;2023-04-28T06:04:18;11.28;65.93
69393;SHT31;56582;44.624;20.378;2023-04-28T06:06:43;11.39;64.05
69393;SHT31;56582;44.624;20.378;2023-04-28T06:09:09;11.57;63.74
69393;SHT31;56582;44.624;20.378;2023-04-28T06:11:34;11.68;62.40
69393;SHT31;56582;44.624;20.378;2023-04-28T06:14:00;11.95;59.75
69393;SHT31;56582;44.624;20.378;2023-04-28T06:16:25;12.06;58.27
69393;SHT31;56582;44.624;20.378;2023-04-28T06:18:51;12.23;59.90
69393;SHT31;56582;44.624;20.378;2023-04-28T06:21:17;12.43;58.69
69393;SHT31;56582;44.624;20.378;2023-04-28T06:23:43;12.65;57.25
69393;SHT31;56582;44.624;20.378;2023-04-28T06:26:08;12.75;59.03
69393;SHT31;56582;44.624;20.378;2023-04-28T06:28:34;12.95;54.53
69393;SHT31;56582;44.624;20.378;2023-04-28T06:31:00;13.02;57.29
69393;SHT31;56582;44.624;20.378;2023-04-28T06:33:25;13.19;54.67
69393;SHT31;56582;44.624;20.378;2023-04-28T06:35:51;13.15;56.19
69393;SHT31;56582;44.624;20.378;2023-04-28T06:38:17;13.30;56.09
69393;SHT31;56582;44.624;20.378;2023-04-28T06:40:43;13.18;53.61
69393;SHT31;56582;44.624;20.378;2023-04-28T06:43:10;13.46;53.23
69393;SHT31;56582;44.624;20.378;2023-04-28T06:45:36;13.61;53.77
69393;SHT31;56582;44.624;20.378;2023-04-28T06:48:01;13.64;56.23
69393;SHT31;56582;44.624;20.378;2023-04-28T06:50:27;13.82;56.28
69393;SHT31;56582;44.624;20.378;2023-04-28T06:52:52;13.85;53.23
69393;SHT31;56582;44.624;20.378;2023-04-28T06:55:18;14.00;54.76
69393;SHT31;56582;44.624;20.378;2023-04-28T06:57:43;14.14;48.88
69393;SHT31;56582;44.624;20.378;2023-04-28T07:00:09;14.22;49.58
69393;SHT31;56582;44.624;20.378;2023-04-28T07:02:35;14.26;48.10
69393;SHT31;56582;44.624;20.378;2023-04-28T07:05:01;14.22;48.64
69393;SHT31;56582;44.624;20.378;2023-04-28T07:07:28;14.25;48.13
69393;SHT31;56582;44.624;20.378;2023-04-28T07:09:53;14.60;50.77
69393;SHT31;56582;44.624;20.378;2023-04-28T07:12:20;14.50;44.58
69393;SHT31;56582;44.624;20.378;2023-04-28T07:14:45;14.36;45.42
69393;SHT31;56582;44.624;20.378;2023-04-28T07:17:11;14.56;47.41
69393;SHT31;56582;44.624;20.378;2023-04-28T07:19:36;14.39;44.27
69393;SHT31;56582;44.624;20.378;2023-04-28T07:22:02;14.28;49.27
69393;SHT31;56582;44.624;20.378;2023-04-28T07:24:27;14.65;49.39
69393;SHT31;56582;44.624;20.378;2023-04-28T07:26:53;14.04;45.09
69393;SHT31;56582;44.624;20.378;2023-04-28T07:29:18;13.81;46.05
69393;SHT31;56582;44.624;20.378;2023-04-28T07:31:44;14.15;46.76
69393;SHT31;56582;44.624;20.378;2023-04-28T07:34:10;14.07;44.13
69393;SHT31;56582;44.624;20.378;2023-04-28T07:36:35;14.11;44.71
69393;SHT31;56582;44.624;20.378;2023-04-28T07:39:00;14.17;45.34
69393;SHT31;56582;44.624;20.378;2023-04-28T07:41:26;13.56;44.19
69393;SHT31;56582;44.624;20.378;2023-04-28T07:43:53;13.87;44.70
69393;SHT31;56582;44.624;20.378;2023-04-28T07:46:18;13.50;45.17
69393;SHT31;56582;44.624;20.378;2023-04-28T07:48:44;13.71;44.17
69393;SHT31;56582;44.624;20.378;2023-04-28T07:51:09;13.67;44.02
69393;SHT31;56582;44.624;20.378;2023-04-28T07:53:35;14.14;47.61
69393;SHT31;56582;44.624;20.378;2023-04-28T07:56:00;14.43;47.38
69393;SHT31;56582;44.624;20.378;2023-04-28T07:58:26;14.57;46.64
69393;SHT31;56582;44.624;20.378;2023-04-28T08:00:52;14.91;47.58
69393;SHT31;56582;44.624;20.378;2023-04-28T08:03:17;14.70;45.12
69393;SHT31;56582;44.624;20.378;2023-04-28T08:05:42;15.00;44.55
69393;SHT31;56582;44.624;20.378;2023-04-28T08:08:09;15.28;44.52
69393;SHT31;56582;44.624;20.378;2023-04-28T08:10:35;15.39;47.22
69393;SHT31;56582;44.624;20.378;2023-04-28T08:13:02;15.41;41.83
69393;SHT31;56582;44.624;20.378;2023-04-28T08:15:27;15.38;44.73
69393;SHT31;56582;44.624;20.378;2023-04-28T08:17:53;15.62;47.57
69393;SHT31;56582;44.624;20.378;2023-04-28T08:20:18;15.36;44.18
69393;SHT31;56582;44.624;20.378;2023-04-28T08:22:44;15.56;47.36
69393;SHT31;56582;44.624;20.378;2023-04-28T08:25:10;15.59;45.32
69393;SHT31;56582;44.624;20.378;2023-04-28T08:27:36;15.76;41.63
69393;SHT31;56582;44.624;20.378;2023-04-28T08:30:07;15.81;45.40
69393;SHT31;56582;44.624;20.378;2023-04-28T08:32:33;15.72;43.33
69393;SHT31;56582;44.624;20.378;2023-04-28T08:34:59;15.75;42.14
69393;SHT31;56582;44.624;20.378;2023-04-28T08:37:25;15.78;43.17
69393;SHT31;56582;44.624;20.378;2023-04-28T08:39:51;15.75;46.36
69393;SHT31;56582;44.624;20.378;2023-04-28T08:42:24;16.06;46.56
69393;SHT31;56582;44.624;20.378;2023-04-28T08:44:50;15.38;38.87
69393;SHT31;56582;44.624;20.378;2023-04-28T08:47:23;15.27;39.93
69393;SHT31;56582;44.624;20.378;2023-04-28T08:49:50;15.04;40.14
69393;SHT31;56582;44.624;20.378;2023-04-28T08:52:17;15.70;43.89
69393;SHT31;56582;44.624;20.378;2023-04-28T08:54:44;15.72;41.22
69393;SHT31;56582;44.624;20.378;2023-04-28T08:57:10;15.25;40.60
69393;SHT31;56582;44.624;20.378;2023-04-28T08:59:39;14.91;39.73
69393;SHT31;56582;44.624;20.378;2023-04-28T09:02:07;14.81;41.38
69393;SHT31;56582;44.624;20.378;2023-04-28T09:04:33;14.87;39.78
69393;SHT31;56582;44.624;20.378;2023-04-28T09:06:58;14.98;41.91
69393;SHT31;56582;44.624;20.378;2023-04-28T09:09:28;14.77;39.65
69393;SHT31;56582;44.624;20.378;2023-04-28T09:12:00;14.94;41.03
69393;SHT31;56582;44.624;20.378;2023-04-28T09:14:30;14.87;39.71
69393;SHT31;56582;44.624;20.378;2023-04-28T09:16:57;15.11;42.78
69393;SHT31;56582;44.624;20.378;2023-04-28T09:19:23;15.58;45.53
69393;SHT31;56582;44.624;20.378;2023-04-28T09:21:56;15.86;44.87
69393;SHT31;56582;44.624;20.378;2023-04-28T09:26:51;15.59;42.15
69393;SHT31;56582;44.624;20.378;2023-04-28T09:29:17;15.76;40.52
69393;SHT31;56582;44.624;20.378;2023-04-28T09:31:42;15.42;40.18
69393;SHT31;56582;44.624;20.378;2023-04-28T09:34:08;15.35;42.99
69393;SHT31;56582;44.624;20.378;2023-04-28T09:36:34;15.96;45.39
69393;SHT31;56582;44.624;20.378;2023-04-28T09:39:00;16.21;45.52
69393;SHT31;56582;44.624;20.378;2023-04-28T09:41:43;16.55;45.53
69393;SHT31;56582;44.624;20.378;2023-04-28T09:44:17;16.27;40.19
69393;SHT31;56582;44.624;20.378;2023-04-28T09:46:46;16.30;38.56
69393;SHT31;56582;44.624;20.378;2023-04-28T09:49:12;16.34;42.50
69393;SHT31;56582;44.624;20.378;2023-04-28T09:51:39;15.59;38.96
69393;SHT31;56582;44.624;20.378;2023-04-28T09:54:06;15.58;39.76
69393;SHT31;56582;44.624;20.378;2023-04-28T09:56:33;16.16;44.68
69393;SHT31;56582;44.624;20.378;2023-04-28T09:59:02;16.64;46.69
69393;SHT31;56582;44.624;20.378;2023-04-28T10:01:36;16.17;39.05
69393;SHT31;56582;44.624;20.378;2023-04-28T10:04:03;16.30;40.71
69393;SHT31;56582;44.624;20.378;2023-04-28T10:06:33;16.71;43.02
69393;SHT31;56582;44.624;20.378;2023-04-28T10:09:00;17.02;45.66
69393;SHT31;56582;44.624;20.378;2023-04-28T10:11:26;17.20;42.56
69393;SHT31;56582;44.624;20.378;2023-04-28T10:13:52;17.50;44.34
69393;SHT31;56582;44.624;20.378;2023-04-28T10:16:18;16.48;39.73
69393;SHT31;56582;44.624;20.378;2023-04-28T10:18:44;16.92;43.70
69393;SHT31;56582;44.624;20.378;2023-04-28T10:21:11;17.34;44.15
69393;SHT31;56582;44.624;20.378;2023-04-28T10:26:32;17.49;40.78
69393;SHT31;56582;44.624;20.378;2023-04-28T10:29:00;16.89;38.08
69393;SHT31;56582;44.624;20.378;2023-04-28T10:31:26;16.83;40.98
69393;SHT31;56582;44.624;20.378;2023-04-28T10:33:51;16.99;42.79
69393;SHT31;56582;44.624;20.378;2023-04-28T10:36:47;16.78;41.38
69393;SHT31;56582;44.624;20.378;2023-04-28T10:39:16;16.91;43.45
69393;SHT31;56582;44.624;20.378;2023-04-28T10:41:44;17.10;43.24
69393;SHT31;56582;44.624;20.378;2023-04-28T10:47:03;17.36;40.94
69393;SHT31;56582;44.624;20.378;2023-04-28T10:55:33;16.65;40.35
69393;SHT31;56582;44.624;20.378;2023-04-28T11:00:47;16.69;39.81
69393;SHT31;56582;44.624;20.378;2023-04-28T11:03:43;16.76;38.32
69393;SHT31;56582;44.624;20.378;2023-04-28T11:16:55;17.78;44.55
69393;SHT31;56582;44.624;20.378;2023-04-28T11:21:52;17.53;39.14
69393;SHT31;56582;44.624;20.378;2023-04-28T11:24:19;17.64;42.88
69393;SHT31;56582;44.624;20.378;2023-04-28T11:26:45;17.84;42.05
69393;SHT31;56582;44.624;20.378;2023-04-28T11:29:11;18.19;45.77
69393;SHT31;56582;44.624;20.378;2023-04-28T11:31:37;18.28;43.02
69393;SHT31;56582;44.624;20.378;2023-04-28T11:34:04;18.25;39.79
69393;SHT31;56582;44.624;20.378;2023-04-28T11:36:35;17.87;40.48
69393;SHT31;56582;44.624;20.378;2023-04-28T11:39:05;18.12;43.71
69393;SHT31;56582;44.624;20.378;2023-04-28T11:41:35;18.29;43.73
69393;SHT31;56582;44.624;20.378;2023-04-28T11:44:15;18.22;39.44
69393;SHT31;56582;44.624;20.378;2023-04-28T11:46:45;18.12;37.55
69393;SHT31;56582;44.624;20.378;2023-04-28T11:49:16;17.84;38.38
69393;SHT31;56582;44.624;20.378;2023-04-28T11:51:41;18.04;43.16
69393;SHT31;56582;44.624;20.378;2023-04-28T11:54:09;18.43;41.67
69393;SHT31;56582;44.624;20.378;2023-04-28T11:56:40;18.52;41.51
69393;SHT31;56582;44.624;20.378;2023-04-28T11:59:15;18.49;42.76
69393;SHT31;56582;44.624;20.378;2023-04-28T12:04:24;18.83;42.43
69393;SHT31;56582;44.624;20.378;2023-04-28T12:09:36;19.01;38.73
69393;SHT31;56582;44.624;20.378;2023-04-28T12:12:03;18.50;36.88
69393;SHT31;56582;44.624;20.378;2023-04-28T12:14:31;18.09;38.48
69393;SHT31;56582;44.624;20.378;2023-04-28T12:16:59;17.81;38.30
69393;SHT31;56582;44.624;20.378;2023-04-28T12:19:25;17.78;42.52
69393;SHT31;56582;44.624;20.378;2023-04-28T12:24:27;17.71;39.03
69393;SHT31;56582;44.624;20.378;2023-04-28T12:26:53;18.36;43.13
69393;SHT31;56582;44.624;20.378;2023-04-28T12:29:38;18.13;38.99
69393;SHT31;56582;44.624;20.378;2023-04-28T12:32:05;18.18;41.76
69393;SHT31;56582;44.624;20.378;2023-04-28T12:34:31;18.66;40.15
69393;SHT31;56582;44.624;20.378;2023-04-28T12:37:00;18.95;41.51
69393;SHT31;56582;44.624;20.378;2023-04-28T12:39:27;19.25;40.43
69393;SHT31;56582;44.624;20.378;2023-04-28T12:41:53;19.32;39.91
69393;SHT31;56582;44.624;20.378;2023-04-28T12:44:23;19.38;40.31
69393;SHT31;56582;44.624;20.378;2023-04-28T12:46:50;19.44;40.70
69393;SHT31;56582;44.624;20.378;2023-04-28T12:49:16;19.12;37.41
69393;SHT31;56582;44.624;20.378;2023-04-28T12:51:41;18.60;37.61
69393;SHT31;56582;44.624;20.378;2023-04-28T12:54:07;18.09;38.36
69393;SHT31;56582;44.624;20.378;2023-04-28T12:56:33;18.22;37.99
69393;SHT31;56582;44.624;20.378;2023-04-28T12:58:59;18.08;37.80
69393;SHT31;56582;44.624;20.378;2023-04-28T13:01:27;17.88;38.22
69393;SHT31;56582;44.624;20.378;2023-04-28T13:03:52;18.02;37.82
69393;SHT31;56582;44.624;20.378;2023-04-28T13:06:18;17.74;38.72
69393;SHT31;56582;44.624;20.378;2023-04-28T13:08:44;17.37;38.54
69393;SHT31;56582;44.624;20.378;2023-04-28T13:11:10;16.96;38.85
69393;SHT31;56582;44.624;20.378;2023-04-28T13:13:35;17.44;38.23
69393;SHT31;56582;44.624;20.378;2023-04-28T13:16:01;17.53;37.31
69393;SHT31;56582;44.624;20.378;2023-04-28T13:18:29;17.73;41.79
69393;SHT31;56582;44.624;20.378;2023-04-28T13:20:54;17.99;37.33
69393;SHT31;56582;44.624;20.378;2023-04-28T13:23:20;18.21;37.18
69393;SHT31;56582;44.624;20.378;2023-04-28T13:25:45;18.05;38.91
69393;SHT31;56582;44.624;20.378;2023-04-28T13:28:11;17.98;37.71
69393;SHT31;56582;44.624;20.378;2023-04-28T13:30:37;18.21;38.70
69393;SHT31;56582;44.624;20.378;2023-04-28T13:33:03;18.28;39.05
69393;SHT31;56582;44.624;20.378;2023-04-28T13:35:28;18.66;41.95
69393;SHT31;56582;44.624;20.378;2023-04-28T13:37:53;18.94;39.50
69393;SHT31;56582;44.624;20.378;2023-04-28T13:40:26;18.46;38.70
69393;SHT31;56582;44.624;20.378;2023-04-28T13:42:52;17.79;39.05
69393;SHT31;56582;44.624;20.378;2023-04-28T13:45:18;18.10;40.34
69393;SHT31;56582;44.624;20.378;2023-04-28T13:47:43;18.32;45.59
69393;SHT31;56582;44.624;20.378;2023-04-28T13:50:09;18.39;41.39
69393;SHT31;56582;44.624;20.378;2023-04-28T13:52:34;18.67;41.52
69393;SHT31;56582;44.624;20.378;2023-04-28T13:55:00;18.80;43.33
69393;SHT31;56582;44.624;20.378;2023-04-28T13:57:26;18.91;39.94
69393;SHT31;56582;44.624;20.378;2023-04-28T13:59:51;18.97;40.96
69393;SHT31;56582;44.624;20.378;2023-04-28T14:02:16;19.01;42.35
69393;SHT31;56582;44.624;20.378;2023-04-28T14:04:42;18.71;39.37
69393;SHT31;56582;44.624;20.378;2023-04-28T14:07:13;18.86;40.97
69393;SHT31;56582;44.624;20.378;2023-04-28T14:09:38;19.10;40.57
69393;SHT31;56582;44.624;20.378;2023-04-28T14:12:05;18.71;38.09
69393;SHT31;56582;44.624;20.378;2023-04-28T14:14:30;17.95;37.39
69393;SHT31;56582;44.624;20.378;2023-04-28T14:16:57;18.04;38.20
69393;SHT31;56582;44.624;20.378;2023-04-28T14:19:22;17.74;38.01
69393;SHT31;56582;44.624;20.378;2023-04-28T14:21:53;17.99;40.96
69393;SHT31;56582;44.624;20.378;2023-04-28T14:24:19;17.78;37.43
69393;SHT31;56582;44.624;20.378;2023-04-28T14:26:45;18.02;38.45
69393;SHT31;56582;44.624;20.378;2023-04-28T14:29:10;18.19;40.08
69393;SHT31;56582;44.624;20.378;2023-04-28T14:31:36;18.02;43.86
69393;SHT31;56582;44.624;20.378;2023-04-28T14:34:02;17.94;37.58
69393;SHT31;56582;44.624;20.378;2023-04-28T14:36:28;18.15;38.66
69393;SHT31;56582;44.624;20.378;2023-04-28T14:38:56;18.19;40.29
69393;SHT31;56582;44.624;20.378;2023-04-28T14:41:21;18.15;38.02
69393;SHT31;56582;44.624;20.378;2023-04-28T14:43:47;18.25;39.82
69393;SHT31;56582;44.624;20.378;2023-04-28T14:46:12;17.77;39.59
69393;SHT31;56582;44.624;20.378;2023-04-28T14:48:38;17.57;40.76
69393;SHT31;56582;44.624;20.378;2023-04-28T14:51:03;17.27;40.69
69393;SHT31;56582;44.624;20.378;2023-04-28T14:53:29;17.08;42.24
69393;SHT31;56582;44.624;20.378;2023-04-28T14:55:54;17.26;42.75
69393;SHT31;56582;44.624;20.378;2023-04-28T14:58:20;17.09;40.47
69393;SHT31;56582;44.624;20.378;2023-04-28T15:00:46;17.50;39.95
69393;SHT31;56582;44.624;20.378;2023-04-28T15:03:11;17.70;40.72
69393;SHT31;56582;44.624;20.378;2023-04-28T15:05:37;17.67;40.11
69393;SHT31;56582;44.624;20.378;2023-04-28T15:08:04;17.55;40.62
69393;SHT31;56582;44.624;20.378;2023-04-28T15:10:37;17.75;42.07
69393;SHT31;56582;44.624;20.378;2023-04-28T15:13:03;17.30;39.81
69393;SHT31;56582;44.624;20.378;2023-04-28T15:15:29;17.36;42.19
69393;SHT31;56582;44.624;20.378;2023-04-28T15:17:55;17.02;40.56
69393;SHT31;56582;44.624;20.378;2023-04-28T15:20:31;17.10;40.85
69393;SHT31;56582;44.624;20.378;2023-04-28T15:22:58;17.10;42.71
69393;SHT31;56582;44.624;20.378;2023-04-28T15:25:24;17.10;41.37
69393;SHT31;56582;44.624;20.378;2023-04-28T15:27:50;17.30;50.62
69393;SHT31;56582;44.624;20.378;2023-04-28T15:30:17;17.64;43.40
69393;SHT31;56582;44.624;20.378;2023-04-28T15:32:43;17.70;43.96
69393;SHT31;56582;44.624;20.378;2023-04-28T15:35:10;17.92;44.98
69393;SHT31;56582;44.624;20.378;2023-04-28T15:40:06;18.29;44.53
69393;SHT31;56582;44.624;20.378;2023-04-28T15:42:32;18.19;43.76
69393;SHT31;56582;44.624;20.378;2023-04-28T15:45:09;18.24;43.03
69393;SHT31;56582;44.624;20.378;2023-04-28T15:47:35;17.91;44.22
69393;SHT31;56582;44.624;20.378;2023-04-28T15:50:03;17.79;40.99
69393;SHT31;56582;44.624;20.378;2023-04-28T15:52:28;17.84;42.70
69393;SHT31;56582;44.624;20.378;2023-04-28T15:54:55;17.78;42.38
69393;SHT31;56582;44.624;20.378;2023-04-28T15:57:20;17.68;40.37
69393;SHT31;56582;44.624;20.378;2023-04-28T15:59:46;17.47;41.98